createdAt,value
2023-04-04T00:02:04.253Z,99770.76
2023-04-04T00:04:37.470Z,99778.66
2023-04-04T00:07:10.442Z,99778.33
2023-04-04T00:09:43.568Z,99784.92
2023-04-04T00:12:17.894Z,99785.34
2023-04-04T00:14:51.309Z,99787.45
2023-04-04T00:17:24.811Z,99790.86
2023-04-04T00:19:58.325Z,99797.28
2023-04-04T00:22:31.839Z,99797.20
2023-04-04T00:25:05.066Z,99800.55
2023-04-04T00:27:38.541Z,99796.94
2023-04-04T00:30:13.400Z,99801.35
2023-04-04T00:32:47.455Z,99807.45
2023-04-04T00:35:20.610Z,99806.15
2023-04-04T00:37:53.958Z,99801.44
2023-04-04T00:40:26.886Z,99808.92
2023-04-04T00:43:02.207Z,99808.13
2023-04-04T00:45:36.648Z,99805.52
2023-04-04T00:48:09.509Z,99809.84
2023-04-04T00:50:42.923Z,99810.14
2023-04-04T00:53:16.622Z,99806.15
2023-04-04T00:55:49.602Z,99808.84
2023-04-04T00:58:22.829Z,99809.84
2023-04-04T01:00:56.013Z,99811.53
2023-04-04T01:03:29.875Z,99813.16
2023-04-04T01:06:04.443Z,99808.38
2023-04-04T01:08:40.574Z,99809.67
2023-04-04T01:11:14.383Z,99811.45
2023-04-04T01:13:47.702Z,99803.16
2023-04-04T01:16:21.903Z,99806.73
2023-04-04T01:18:55.304Z,99806.41
2023-04-04T01:21:29.840Z,99806.99
2023-04-04T01:24:04.819Z,99806.66
2023-04-04T01:26:39.788Z,99805.77
2023-04-04T01:29:12.728Z,99803.75
2023-04-04T01:31:56.693Z,99798.92
2023-04-04T01:34:53.348Z,99804.22
2023-04-04T01:37:48.835Z,99803.34
2023-04-04T01:40:35.835Z,99811.07
2023-04-04T01:43:10.599Z,99808.47
2023-04-04T01:45:46.437Z,99809.27
2023-04-04T01:48:19.718Z,99803.75
2023-04-04T01:50:54.331Z,99809.94
2023-04-04T01:53:28.848Z,99811.80
2023-04-04T01:56:02.819Z,99808.80
2023-04-04T01:58:38.026Z,99807.88
2023-04-04T02:01:11.283Z,99809.94
2023-04-04T02:03:44.808Z,99813.34
2023-04-04T02:06:17.932Z,99815.95
2023-04-04T02:08:52.348Z,99817.67
2023-04-04T02:11:26.265Z,99820.70
2023-04-04T02:13:59.397Z,99821.49
2023-04-04T02:16:33.795Z,99819.60
2023-04-04T02:19:06.567Z,99830.03
2023-04-04T02:21:41.747Z,99836.16
2023-04-04T02:24:14.644Z,99840.07
2023-04-04T02:26:47.525Z,99836.08
2023-04-04T02:29:20.988Z,99849.11
2023-04-04T02:31:53.961Z,99850.88
2023-04-04T02:34:26.877Z,99849.36
2023-04-04T02:37:01.012Z,99849.36
2023-04-04T02:39:34.516Z,99855.55
2023-04-04T02:42:07.810Z,99850.67
2023-04-04T02:44:40.986Z,99853.36
2023-04-04T02:47:15.446Z,99856.85
2023-04-04T02:49:48.686Z,99849.53
2023-04-04T02:52:23.315Z,99851.22
2023-04-04T02:54:56.158Z,99858.57
2023-04-04T02:57:30.922Z,99854.58
2023-04-04T03:00:04.781Z,99854.58
2023-04-04T03:02:37.537Z,99840.63
2023-04-04T03:05:11.546Z,99839.32
2023-04-04T03:07:44.474Z,99850.97
2023-04-04T03:10:17.379Z,99853.40
2023-04-04T03:12:50.245Z,99856.00
2023-04-04T03:15:24.014Z,99860.00
2023-04-04T03:17:57.375Z,99873.53
2023-04-04T03:20:31.802Z,99866.43
2023-04-04T03:23:04.584Z,99870.16
2023-04-04T03:25:37.469Z,99871.00
2023-04-04T03:28:11.520Z,99866.91
2023-04-04T03:30:45.149Z,99870.32
2023-04-04T03:33:18.470Z,99864.69
2023-04-04T03:35:51.511Z,99870.08
2023-04-04T03:38:25.962Z,99867.17
2023-04-04T03:41:05.899Z,99872.86
2023-04-04T03:43:39.357Z,99869.28
2023-04-04T03:46:14.369Z,99871.64
2023-04-04T03:48:48.947Z,99865.55
2023-04-04T03:51:28.879Z,99873.45
2023-04-04T03:54:01.842Z,99872.95
2023-04-04T03:56:35.085Z,99873.03
2023-04-04T03:59:09.906Z,99876.73
2023-04-04T04:01:42.891Z,99885.28
2023-04-04T04:04:16.470Z,99894.66
2023-04-04T04:06:49.965Z,99900.38
2023-04-04T04:09:23.260Z,99908.66
2023-04-04T04:11:56.985Z,99909.17
2023-04-04T04:14:29.993Z,99906.89
2023-04-04T04:17:04.985Z,99907.78
2023-04-04T04:19:39.655Z,99907.45
2023-04-04T04:22:13.265Z,99903.80
2023-04-04T04:24:46.424Z,99908.05
2023-04-04T04:27:19.851Z,99907.67
2023-04-04T04:29:53.078Z,99913.95
2023-04-04T04:32:27.630Z,99917.44
2023-04-04T04:35:01.763Z,99910.03
2023-04-04T04:37:36.833Z,99905.32
2023-04-04T04:40:11.468Z,99900.45
2023-04-04T04:42:47.723Z,99897.34
2023-04-04T04:45:22.936Z,99903.94
2023-04-04T04:47:57.783Z,99909.66
2023-04-04T04:50:31.346Z,99916.35
2023-04-04T04:53:05.137Z,99915.22
2023-04-04T04:55:38.873Z,99914.71
2023-04-04T04:58:14.361Z,99918.70
2023-04-04T05:00:49.740Z,99920.84
2023-04-04T05:03:23.385Z,99928.16
2023-04-04T05:05:57.634Z,99930.55
2023-04-04T05:08:30.730Z,99930.55
2023-04-04T05:11:09.349Z,99936.49
2023-04-04T05:13:43.364Z,99944.33
2023-04-04T05:16:16.634Z,99942.13
2023-04-04T05:18:50.490Z,99951.52
2023-04-04T05:21:24.035Z,99949.23
2023-04-04T05:23:59.001Z,99943.74
2023-04-04T05:26:32.818Z,99951.17
2023-04-04T05:29:05.971Z,99958.33
2023-04-04T05:31:39.269Z,99955.98
2023-04-04T05:34:14.093Z,99960.70
2023-04-04T05:36:47.796Z,99962.09
2023-04-04T05:39:21.734Z,99962.49
2023-04-04T05:41:59.267Z,99958.97
2023-04-04T05:44:33.972Z,99956.11
2023-04-04T05:47:07.882Z,99953.27
2023-04-04T05:49:42.436Z,99953.73
2023-04-04T05:52:17.280Z,99955.95
2023-04-04T05:54:51.264Z,99960.66
2023-04-04T05:57:25.558Z,99952.33
2023-04-04T06:00:00.280Z,99958.02
2023-04-04T06:02:35.609Z,99953.18
2023-04-04T06:05:10.651Z,99947.11
2023-04-04T06:07:44.440Z,99946.45
2023-04-04T06:10:17.877Z,99952.14
2023-04-04T06:12:51.758Z,99951.91
2023-04-04T06:15:25.845Z,99948.52
2023-04-04T06:17:59.919Z,99950.24
2023-04-04T06:20:35.871Z,99951.39
2023-04-04T06:23:10.385Z,99956.00
2023-04-04T06:25:45.015Z,99958.22
2023-04-04T06:28:18.468Z,99957.45
2023-04-04T06:30:52.754Z,99961.01
2023-04-04T06:33:28.392Z,99965.16
2023-04-04T06:36:01.739Z,99963.22
2023-04-04T06:38:35.465Z,99961.46
2023-04-04T06:41:13.546Z,99964.91
2023-04-04T06:43:48.206Z,99958.26
2023-04-04T06:46:22.014Z,99969.62
2023-04-04T06:48:55.336Z,99969.09
2023-04-04T06:51:29.330Z,99972.16
2023-04-04T06:54:03.403Z,99968.72
2023-04-04T06:56:37.004Z,99971.40
2023-04-04T06:59:13.041Z,99973.88
2023-04-04T07:01:46.995Z,99970.73
2023-04-04T07:04:22.853Z,99972.52
2023-04-04T07:06:56.003Z,99969.68
2023-04-04T07:09:29.845Z,99966.80
2023-04-04T07:12:03.060Z,99972.92
2023-04-04T07:14:36.867Z,99975.41
2023-04-04T07:17:17.465Z,99977.27
2023-04-04T07:19:45.122Z,99979.84
2023-04-04T07:22:18.097Z,99976.64
2023-04-04T07:24:51.772Z,99975.69
2023-04-04T07:27:25.021Z,99977.95
2023-04-04T07:29:58.507Z,99976.64
2023-04-04T07:32:31.755Z,99979.33
2023-04-04T07:35:07.236Z,99984.05
2023-04-04T07:37:40.965Z,99977.61
2023-04-04T07:40:14.566Z,99976.58
2023-04-04T07:42:50.728Z,99975.27
2023-04-04T07:45:23.765Z,99974.23
2023-04-04T07:47:56.843Z,99977.02
2023-04-04T07:50:29.920Z,99973.34
2023-04-04T07:53:03.835Z,99974.01
2023-04-04T07:55:36.922Z,99973.91
2023-04-04T07:58:11.129Z,99977.29
2023-04-04T08:00:44.122Z,99975.81
2023-04-04T08:03:19.599Z,99976.76
2023-04-04T08:05:52.967Z,99964.36
2023-04-04T08:08:26.295Z,99967.36
2023-04-04T08:10:59.483Z,99966.23
2023-04-04T08:13:33.452Z,99964.17
2023-04-04T08:16:06.845Z,99962.17
2023-04-04T08:18:41.063Z,99959.12
2023-04-04T08:21:16.110Z,99954.06
2023-04-04T08:23:50.216Z,99964.30
2023-04-04T08:26:23.577Z,99965.30
2023-04-04T08:28:56.622Z,99952.17
2023-04-04T08:31:31.086Z,99953.28
2023-04-04T08:34:06.423Z,99958.58
2023-04-04T08:36:39.852Z,99953.13
2023-04-04T08:39:13.894Z,99954.67
2023-04-04T08:41:48.605Z,99953.73
2023-04-04T08:44:23.212Z,99956.06
2023-04-04T08:46:57.124Z,99957.91
2023-04-04T08:49:35.473Z,99963.73
2023-04-04T08:52:09.570Z,99970.75
2023-04-04T08:54:44.221Z,99965.93
2023-04-04T08:57:17.905Z,99964.61
2023-04-04T08:59:51.244Z,99968.67
2023-04-04T09:02:47.158Z,99973.79
2023-04-04T09:05:21.396Z,99963.72
2023-04-04T09:07:56.702Z,99966.40
2023-04-04T09:10:30.210Z,99962.75
2023-04-04T09:13:14.717Z,99964.13
2023-04-04T09:15:45.000Z,99961.77
2023-04-04T09:18:19.266Z,99958.32
2023-04-04T09:20:53.607Z,99959.09
2023-04-04T09:23:27.624Z,99954.15
2023-04-04T09:26:08.282Z,99951.03
2023-04-04T09:28:42.665Z,99956.96
2023-04-04T09:31:17.653Z,99951.92
2023-04-04T09:33:53.336Z,99944.26
2023-04-04T09:36:28.303Z,99940.75
2023-04-04T09:39:02.170Z,99938.33
2023-04-04T09:41:35.751Z,99938.52
2023-04-04T09:44:13.425Z,99933.41
2023-04-04T09:46:46.635Z,99931.92
2023-04-04T09:49:22.945Z,99928.62
2023-04-04T09:51:56.870Z,99934.39
2023-04-04T09:54:30.825Z,99934.27
2023-04-04T09:57:04.967Z,99932.80
2023-04-04T09:59:39.179Z,99929.08
2023-04-04T10:02:12.725Z,99930.13
2023-04-04T10:04:48.893Z,99917.81
2023-04-04T10:07:22.077Z,99922.19
2023-04-04T10:09:55.166Z,99928.86
2023-04-04T10:12:29.189Z,99923.66
2023-04-04T10:15:03.521Z,99924.03
2023-04-04T10:17:42.810Z,99919.07
2023-04-04T10:20:16.417Z,99915.45
2023-04-04T10:22:52.152Z,99914.03
2023-04-04T10:25:26.010Z,99914.96
2023-04-04T10:27:58.863Z,99906.91
2023-04-04T10:30:33.255Z,99906.91
2023-04-04T10:33:17.672Z,99908.82
2023-04-04T10:35:54.261Z,99905.09
2023-04-04T10:38:30.571Z,99905.64
2023-04-04T10:41:04.950Z,99899.06
2023-04-04T10:43:45.505Z,99895.63
2023-04-04T10:46:20.775Z,99886.42
2023-04-04T10:48:54.498Z,99880.34
2023-04-04T10:51:27.778Z,99889.97
2023-04-04T10:54:01.512Z,99886.86
2023-04-04T10:56:36.001Z,99884.39
2023-04-04T10:59:17.639Z,99878.85
2023-04-04T11:01:53.478Z,99883.16
2023-04-04T11:04:42.984Z,99882.98
2023-04-04T11:07:18.315Z,99869.16
2023-04-04T11:09:57.274Z,99874.62
2023-04-04T11:12:38.346Z,99870.58
2023-04-04T11:15:14.704Z,99863.95
2023-04-04T11:18:17.280Z,99867.03
2023-04-04T11:20:41.061Z,99864.05
2023-04-04T11:23:27.384Z,99859.97
2023-04-04T11:26:01.470Z,99865.95
2023-04-04T11:28:46.614Z,99857.38
2023-04-04T11:31:24.310Z,99860.25
2023-04-04T11:34:11.974Z,99853.77
2023-04-04T11:36:52.294Z,99848.41
2023-04-04T11:39:33.883Z,99852.31
2023-04-04T11:42:16.100Z,99853.14
2023-04-04T11:45:04.584Z,99849.23
2023-04-04T11:47:38.223Z,99840.61
2023-04-04T11:50:13.930Z,99840.89
2023-04-04T11:52:47.019Z,99831.92
2023-04-04T11:55:27.203Z,99835.22
2023-04-04T11:58:13.044Z,99830.22
2023-04-04T12:00:48.312Z,99825.22
2023-04-04T12:03:22.258Z,99828.08
2023-04-04T12:05:55.769Z,99820.66
2023-04-04T12:08:30.868Z,99822.16
2023-04-04T12:11:06.857Z,99825.13
2023-04-04T12:13:47.146Z,99823.07
2023-04-04T12:16:23.231Z,99812.73
2023-04-04T12:18:58.307Z,99812.46
2023-04-04T12:21:33.868Z,99816.86
2023-04-04T12:24:09.778Z,99810.75
2023-04-04T12:26:46.117Z,99806.47
2023-04-04T12:29:22.471Z,99805.83
2023-04-04T12:31:57.880Z,99806.11
2023-04-04T12:34:39.198Z,99800.55
2023-04-04T12:37:14.652Z,99797.63
2023-04-04T12:39:52.684Z,99791.11
2023-04-04T12:42:26.739Z,99800.38
2023-04-04T12:44:59.741Z,99801.63
2023-04-04T12:47:33.423Z,99802.31
2023-04-04T12:50:08.746Z,99802.52
2023-04-04T12:52:42.761Z,99803.64
2023-04-04T12:55:15.993Z,99803.20
2023-04-04T12:57:50.529Z,99799.32
2023-04-04T13:00:24.211Z,99797.28
2023-04-04T13:02:58.690Z,99797.36
2023-04-04T13:05:42.506Z,99799.67
2023-04-04T13:08:16.221Z,99794.95
2023-04-04T13:11:05.727Z,99797.31
2023-04-04T13:13:41.453Z,99794.09
2023-04-04T13:16:18.706Z,99794.27
2023-04-04T13:18:52.593Z,99795.27
2023-04-04T13:21:26.504Z,99795.30
2023-04-04T13:23:59.439Z,99798.38
2023-04-04T13:26:32.322Z,99793.95
2023-04-04T13:29:05.672Z,99790.02
2023-04-04T13:31:40.108Z,99796.66
2023-04-04T13:34:13.132Z,99791.82
2023-04-04T13:36:47.469Z,99787.05
2023-04-04T13:39:21.272Z,99791.05
2023-04-04T13:41:54.402Z,99794.56
2023-04-04T13:44:28.220Z,99791.92
2023-04-04T13:47:01.006Z,99789.25
2023-04-04T13:49:33.927Z,99793.66
2023-04-04T13:52:06.977Z,99787.42
2023-04-04T13:54:40.178Z,99790.91
2023-04-04T13:57:13.585Z,99785.59
2023-04-04T13:59:46.408Z,99789.52
2023-04-04T14:02:20.131Z,99790.36
2023-04-04T14:04:53.357Z,99793.36
2023-04-04T14:07:27.365Z,99794.23
2023-04-04T14:10:01.596Z,99788.48
2023-04-04T14:12:35.333Z,99792.95
2023-04-04T14:15:09.623Z,99792.08
2023-04-04T14:17:43.743Z,99793.51
2023-04-04T14:20:17.025Z,99802.84
2023-04-04T14:22:50.038Z,99795.89
2023-04-04T14:25:23.527Z,99797.75
2023-04-04T14:27:57.709Z,99809.70
2023-04-04T14:30:30.929Z,99805.27
2023-04-04T14:33:04.706Z,99808.75
2023-04-04T14:35:38.269Z,99806.00
2023-04-04T14:38:11.747Z,99805.45
2023-04-04T14:40:45.685Z,99804.46
2023-04-04T14:43:18.676Z,99807.03
2023-04-04T14:45:52.678Z,99801.97
2023-04-04T14:48:26.290Z,99801.97
2023-04-04T14:50:59.527Z,99801.38
2023-04-04T14:53:34.222Z,99800.38
2023-04-04T14:56:08.191Z,99798.95
2023-04-04T14:58:42.143Z,99797.04
2023-04-04T15:01:15.750Z,99801.80
2023-04-04T15:03:51.393Z,99802.56
2023-04-04T15:06:23.736Z,99796.64
2023-04-04T15:08:57.844Z,99798.69
2023-04-04T15:11:30.861Z,99796.72
2023-04-04T15:14:04.232Z,99797.84
2023-04-04T15:16:37.380Z,99801.63
2023-04-04T15:19:11.688Z,99799.14
2023-04-04T15:21:45.273Z,99802.39
2023-04-04T15:24:18.598Z,99804.42
2023-04-04T15:26:52.749Z,99803.20
2023-04-04T15:29:27.294Z,99801.21
2023-04-04T15:32:00.537Z,99811.04
2023-04-04T15:34:33.956Z,99805.50
2023-04-04T15:37:07.001Z,99802.98
2023-04-04T15:39:52.269Z,99812.01
2023-04-04T15:42:17.261Z,99810.89
2023-04-04T15:44:51.742Z,99811.09
2023-04-04T15:47:24.552Z,99811.25
2023-04-04T15:49:57.426Z,99806.62
2023-04-04T15:52:30.924Z,99805.11
2023-04-04T15:55:04.932Z,99806.66
2023-04-04T15:57:38.613Z,99808.27
2023-04-04T16:00:13.725Z,99808.06
2023-04-04T16:02:48.560Z,99807.43
2023-04-04T16:05:21.880Z,99805.97
2023-04-04T16:07:55.248Z,99808.82
2023-04-04T16:10:28.781Z,99809.48
2023-04-04T16:13:01.978Z,99809.65
2023-04-04T16:15:35.558Z,99806.27
2023-04-04T16:18:09.142Z,99811.31
2023-04-04T16:20:42.715Z,99807.59
2023-04-04T16:23:16.378Z,99800.81
2023-04-04T16:25:51.647Z,99813.84
2023-04-04T16:28:24.671Z,99810.56
2023-04-04T16:31:00.007Z,99813.52
2023-04-04T16:33:34.191Z,99810.27
2023-04-04T16:36:07.885Z,99819.64
2023-04-04T16:38:40.602Z,99820.69
2023-04-04T16:41:13.635Z,99826.20
2023-04-04T16:43:49.570Z,99834.83
2023-04-04T16:46:23.069Z,99827.60
2023-04-04T16:48:58.024Z,99824.49
2023-04-04T16:51:32.219Z,99820.92
2023-04-04T16:54:05.305Z,99823.49
2023-04-04T16:56:39.149Z,99823.92
2023-04-04T16:59:12.421Z,99830.06
2023-04-04T17:01:47.295Z,99828.14
2023-04-04T17:04:20.980Z,99831.51
2023-04-04T17:06:55.146Z,99835.27
2023-04-04T17:09:28.387Z,99840.34
2023-04-04T17:12:03.552Z,99843.67
2023-04-04T17:14:37.572Z,99841.30
2023-04-04T17:17:10.832Z,99841.61
2023-04-04T17:19:44.908Z,99840.61
2023-04-04T17:22:17.240Z,99840.00
2023-04-04T17:24:50.719Z,99835.94
2023-04-04T17:27:23.997Z,99831.00
2023-04-04T17:29:57.501Z,99830.45
2023-04-04T17:32:30.770Z,99822.41
2023-04-04T17:35:03.817Z,99819.66
2023-04-04T17:37:37.666Z,99812.92
2023-04-04T17:40:11.797Z,99818.47
2023-04-04T17:42:45.055Z,99815.23
2023-04-04T17:45:19.833Z,99819.47
2023-04-04T17:47:53.228Z,99824.14
2023-04-04T17:50:26.652Z,99818.34
2023-04-04T17:53:01.886Z,99818.16
2023-04-04T17:55:35.719Z,99818.45
2023-04-04T17:58:09.509Z,99818.73
2023-04-04T18:00:42.648Z,99820.83
2023-04-04T18:03:18.309Z,99822.08
2023-04-04T18:05:52.965Z,99818.57
2023-04-04T18:08:25.257Z,99811.53
2023-04-04T18:10:59.826Z,99814.22
2023-04-04T18:13:33.573Z,99809.46
2023-04-04T18:16:07.737Z,99806.84
2023-04-04T18:18:42.374Z,99806.35
2023-04-04T18:21:15.290Z,99803.23
2023-04-04T18:23:48.805Z,99799.19
2023-04-04T18:26:22.419Z,99798.23
2023-04-04T18:28:56.628Z,99793.69
2023-04-04T18:31:29.833Z,99794.12
2023-04-04T18:34:02.954Z,99791.01
2023-04-04T18:36:36.711Z,99777.02
2023-04-04T18:39:09.429Z,99784.95
2023-04-04T18:41:43.418Z,99782.75
2023-04-04T18:44:17.233Z,99777.91
2023-04-04T18:46:52.067Z,99783.94
2023-04-04T18:49:25.040Z,99791.38
2023-04-04T18:51:58.503Z,99779.09
2023-04-04T18:54:32.225Z,99770.34
2023-04-04T18:57:05.503Z,99773.78
2023-04-04T18:59:38.943Z,99772.77
2023-04-04T19:02:12.942Z,99767.83
2023-04-04T19:04:48.586Z,99769.91
2023-04-04T19:07:24.486Z,99771.54
2023-04-04T19:09:58.634Z,99760.45
2023-04-04T19:12:32.014Z,99760.38
2023-04-04T19:15:07.249Z,99762.94
2023-04-04T19:17:41.528Z,99762.41
2023-04-04T19:20:15.109Z,99757.05
2023-04-04T19:22:48.241Z,99756.98
2023-04-04T19:25:22.053Z,99750.80
2023-04-04T19:27:55.073Z,99748.44
2023-04-04T19:30:48.780Z,99743.14
2023-04-04T19:33:26.050Z,99749.23
2023-04-04T19:36:03.114Z,99745.50
2023-04-04T19:38:42.848Z,99742.36
2023-04-04T19:41:23.371Z,99744.91
2023-04-04T19:43:56.837Z,99729.95
2023-04-04T19:46:33.249Z,99730.31
2023-04-04T19:49:14.212Z,99725.77
2023-04-04T19:51:56.206Z,99724.69
2023-04-04T19:54:37.887Z,99727.41
2023-04-04T19:57:18.829Z,99728.88
2023-04-04T20:00:02.215Z,99716.77
2023-04-04T20:02:50.721Z,99723.11
2023-04-04T20:05:43.490Z,99721.66
2023-04-04T20:08:17.138Z,99718.03
2023-04-04T20:10:52.126Z,99712.59
2023-04-04T20:13:25.884Z,99706.73
2023-04-04T20:16:03.951Z,99706.11
2023-04-04T20:18:39.820Z,99704.27
2023-04-04T20:21:24.576Z,99707.25
2023-04-04T20:24:10.984Z,99699.66
2023-04-04T20:26:58.222Z,99703.52
2023-04-04T20:29:38.033Z,99701.31
2023-04-04T20:32:11.289Z,99694.71
2023-04-04T20:34:50.746Z,99699.13
2023-04-04T20:37:26.719Z,99695.59
2023-04-04T20:40:06.341Z,99702.13
2023-04-04T20:42:41.307Z,99703.05
2023-04-04T20:45:31.915Z,99696.09
2023-04-04T20:48:07.500Z,99702.20
2023-04-04T20:50:44.340Z,99699.20
2023-04-04T20:53:19.777Z,99693.89
2023-04-04T20:55:54.347Z,99694.78
2023-04-04T20:58:31.475Z,99692.66
2023-04-04T21:01:04.724Z,99692.66
2023-04-04T21:03:38.801Z,99696.22
2023-04-04T21:06:17.748Z,99694.03
2023-04-04T21:08:52.433Z,99693.18
2023-04-04T21:11:30.823Z,99687.07
2023-04-04T21:14:03.672Z,99676.54
2023-04-04T21:16:38.549Z,99679.16
2023-04-04T21:19:12.991Z,99676.54
2023-04-04T21:21:46.159Z,99670.81
2023-04-04T21:24:19.304Z,99671.73
2023-04-04T21:26:52.375Z,99666.50
2023-04-04T21:29:29.938Z,99657.73
2023-04-04T21:32:04.130Z,99660.35
2023-04-04T21:34:37.192Z,99650.74
2023-04-04T21:37:11.968Z,99649.37
2023-04-04T21:39:45.368Z,99637.92
2023-04-04T21:42:19.866Z,99635.59
2023-04-04T21:44:52.904Z,99633.27
2023-04-04T21:47:25.638Z,99625.29
2023-04-04T21:49:59.921Z,99622.97
2023-04-04T21:52:33.197Z,99631.56
2023-04-04T21:55:06.664Z,99624.89
2023-04-04T21:57:39.673Z,99623.94
2023-04-04T22:00:13.960Z,99625.56
2023-04-04T22:02:47.398Z,99629.84
2023-04-04T22:05:23.826Z,99635.95
2023-04-04T22:07:55.366Z,99631.50
2023-04-04T22:10:29.823Z,99631.02
2023-04-04T22:13:04.469Z,99634.47
2023-04-04T22:15:38.862Z,99630.55
2023-04-04T22:18:13.690Z,99633.98
2023-04-04T22:20:51.171Z,99637.09
2023-04-04T22:23:23.964Z,99625.33
2023-04-04T22:25:56.926Z,99621.80
2023-04-04T22:28:30.082Z,99623.52
2023-04-04T22:31:04.607Z,99619.11
2023-04-04T22:33:38.865Z,99618.72
2023-04-04T22:36:11.973Z,99616.85
2023-04-04T22:38:45.387Z,99615.55
2023-04-04T22:41:18.150Z,99598.77
2023-04-04T22:43:52.645Z,99596.16
2023-04-04T22:46:26.961Z,99596.09
2023-04-04T22:49:06.129Z,99590.37
2023-04-04T22:51:40.701Z,99582.11
2023-04-04T22:54:16.994Z,99576.49
2023-04-04T22:56:50.513Z,99568.16
2023-04-04T22:59:24.006Z,99567.80
2023-04-04T23:01:58.048Z,99561.33
2023-04-04T23:04:31.619Z,99563.56
2023-04-04T23:07:04.543Z,99556.04
2023-04-04T23:09:38.610Z,99548.20
2023-04-04T23:12:11.944Z,99547.38
2023-04-04T23:14:47.516Z,99537.81
2023-04-04T23:17:20.351Z,99531.64
2023-04-04T23:19:53.268Z,99526.34
2023-04-04T23:22:27.164Z,99528.39
2023-04-04T23:25:00.351Z,99524.83
2023-04-04T23:27:33.843Z,99515.13
2023-04-04T23:30:08.394Z,99506.30
2023-04-04T23:32:42.597Z,99512.25
2023-04-04T23:35:16.160Z,99509.01
2023-04-04T23:37:49.021Z,99499.17
2023-04-04T23:40:22.348Z,99495.11
2023-04-04T23:42:56.076Z,99493.57
2023-04-04T23:45:29.599Z,99499.47
2023-04-04T23:48:03.191Z,99497.41
2023-04-04T23:50:36.200Z,99501.67
2023-04-04T23:53:09.216Z,99511.55
2023-04-04T23:55:42.501Z,99509.66
2023-04-04T23:58:17.247Z,99514.38
